Terminal Aerodrome Forecast
Issued by NWS

Home | Current Version | Previous Version | Text Only | Print | Product List | Glossary On
Versions: 1 2 3 4 5 6 7 8 9 10 11 12 13 14
300
FTUS45 KABQ 272333
TAFTCC
TAF
KTCC 272333Z 2800/2824 29015G24KT P6SM VCSH SCT090 BKN130
     FM280200 02008KT P6SM SCT090 BKN140
     FM280700 VRB06KT P6SM SCT140
     FM281500 16007KT P6SM FEW150
     FM282000 20012KT P6SM FEW100=

USA.gov is the U.S. government's official web portal to all federal, state and local government web resources and services.